createdAt,value
2022-12-22T00:00:41.004Z,2.21
2022-12-22T00:03:32.999Z,2.05
2022-12-22T00:06:18.092Z,1.94
2022-12-22T00:09:05.669Z,1.74
2022-12-22T00:11:51.260Z,1.70
2022-12-22T00:14:36.235Z,1.76
2022-12-22T00:17:24.475Z,1.76
2022-12-22T00:20:15.057Z,1.73
2022-12-22T00:23:03.432Z,1.78
2022-12-22T00:25:48.422Z,1.74
2022-12-22T00:28:33.848Z,1.62
2022-12-22T00:31:19.104Z,1.47
2022-12-22T00:34:04.205Z,1.40
2022-12-22T00:36:49.685Z,1.36
2022-12-22T00:39:34.601Z,1.29
2022-12-22T00:42:19.820Z,1.22
2022-12-22T00:45:04.893Z,1.14
2022-12-22T00:47:50.250Z,1.06
2022-12-22T00:50:35.537Z,0.89
2022-12-22T00:53:22.839Z,0.84
2022-12-22T00:56:08.402Z,0.89
2022-12-22T00:58:54.316Z,0.91
2022-12-22T01:01:39.599Z,0.92
2022-12-22T01:04:24.547Z,0.95
2022-12-22T01:07:09.540Z,0.92
2022-12-22T01:09:54.695Z,0.91
2022-12-22T01:12:42.685Z,0.91
2022-12-22T01:15:33.496Z,0.74
2022-12-22T01:18:18.816Z,0.79
2022-12-22T01:21:04.247Z,0.91
2022-12-22T01:23:49.826Z,1.00
2022-12-22T01:26:34.721Z,1.06
2022-12-22T01:29:19.959Z,1.12
2022-12-22T01:32:04.873Z,1.04
2022-12-22T01:34:50.101Z,0.96
2022-12-22T01:37:35.547Z,0.81
2022-12-22T01:40:20.467Z,0.75
2022-12-22T01:43:05.419Z,0.73
2022-12-22T01:45:54.784Z,0.74
2022-12-22T01:48:50.932Z,0.89
2022-12-22T01:51:46.005Z,1.05
2022-12-22T01:54:33.583Z,0.90
2022-12-22T01:57:18.757Z,1.04
2022-12-22T02:00:04.604Z,0.96
2022-12-22T02:02:51.224Z,1.08
2022-12-22T02:05:38.020Z,1.15
2022-12-22T02:08:23.055Z,1.20
2022-12-22T02:11:20.578Z,1.26
2022-12-22T02:14:33.771Z,1.31
2022-12-22T02:17:39.866Z,1.35
2022-12-22T02:20:54.314Z,1.38
2022-12-22T02:23:45.313Z,1.39
2022-12-22T02:26:50.951Z,1.38
2022-12-22T02:29:51.062Z,1.40
2022-12-22T02:32:36.069Z,1.46
2022-12-22T02:35:21.138Z,1.50
2022-12-22T02:38:15.151Z,1.54
2022-12-22T02:41:35.394Z,1.59
2022-12-22T02:44:40.977Z,1.65
2022-12-22T02:47:30.671Z,1.70
2022-12-22T02:50:46.627Z,1.63
2022-12-22T02:53:34.405Z,1.57
2022-12-22T02:56:23.249Z,1.45
2022-12-22T02:59:08.861Z,1.40
2022-12-22T03:01:54.620Z,1.42
2022-12-22T03:04:39.869Z,1.44
2022-12-22T03:07:25.431Z,1.43
2022-12-22T03:10:10.548Z,1.34
2022-12-22T03:12:56.052Z,1.32
2022-12-22T03:15:41.129Z,1.30
2022-12-22T03:18:28.600Z,1.36
2022-12-22T03:21:14.100Z,1.34
2022-12-22T03:23:59.192Z,1.41
2022-12-22T03:26:25.846Z,1.47
2022-12-22T03:28:52.402Z,1.51
2022-12-22T03:31:19.232Z,1.56
2022-12-22T03:33:45.821Z,1.61
2022-12-22T03:36:12.386Z,1.75
2022-12-22T03:38:38.975Z,1.84
2022-12-22T03:41:05.836Z,1.94
2022-12-22T03:43:51.123Z,2.07
2022-12-22T03:46:33.417Z,2.16
2022-12-22T03:49:11.040Z,2.22
2022-12-22T03:51:47.096Z,2.23
2022-12-22T03:54:17.117Z,2.25
2022-12-22T03:56:44.358Z,2.26
2022-12-22T03:59:11.536Z,2.27
2022-12-22T04:01:41.360Z,2.30
2022-12-22T04:04:08.584Z,2.35
2022-12-22T04:06:35.153Z,2.38
2022-12-22T04:09:01.808Z,2.45
2022-12-22T04:11:47.102Z,2.47
2022-12-22T04:14:13.676Z,2.52
2022-12-22T04:16:40.400Z,2.62
2022-12-22T04:19:08.153Z,2.65
2022-12-22T04:21:34.765Z,2.66
2022-12-22T04:24:01.678Z,2.69
2022-12-22T04:26:28.527Z,2.75
2022-12-22T04:28:55.845Z,2.79
2022-12-22T04:31:22.964Z,2.91
2022-12-22T04:33:49.998Z,2.99
2022-12-22T04:36:17.172Z,2.97
2022-12-22T04:38:43.893Z,2.88
2022-12-22T04:41:11.046Z,2.66
2022-12-22T04:43:37.686Z,2.44
2022-12-22T04:46:04.790Z,2.43
2022-12-22T04:48:31.727Z,2.39
2022-12-22T04:51:00.165Z,2.33
2022-12-22T04:53:28.555Z,2.37
2022-12-22T04:55:58.744Z,2.25
2022-12-22T04:58:25.468Z,2.12
2022-12-22T05:00:52.537Z,2.11
2022-12-22T05:03:19.443Z,2.09
2022-12-22T05:05:46.082Z,2.05
2022-12-22T05:08:13.183Z,2.04
2022-12-22T05:10:40.084Z,2.02
2022-12-22T05:13:07.123Z,1.97
2022-12-22T05:15:36.078Z,2.01
2022-12-22T05:18:03.632Z,2.05
2022-12-22T05:20:30.968Z,2.11
2022-12-22T05:22:59.117Z,2.15
2022-12-22T05:25:29.849Z,2.18
2022-12-22T05:27:58.065Z,2.13
2022-12-22T05:30:24.874Z,2.10
2022-12-22T05:32:51.452Z,2.08
2022-12-22T05:35:18.055Z,2.00
2022-12-22T05:37:44.739Z,2.02
2022-12-22T05:40:13.641Z,2.19
2022-12-22T05:42:40.369Z,2.47
2022-12-22T05:45:15.094Z,2.61
2022-12-22T05:47:43.204Z,2.73
2022-12-22T05:50:11.660Z,2.82
2022-12-22T05:52:38.538Z,2.89
2022-12-22T05:55:05.636Z,2.91
2022-12-22T05:57:33.375Z,2.91
2022-12-22T06:00:02.569Z,2.97
2022-12-22T06:02:29.399Z,3.11
2022-12-22T06:04:56.143Z,3.24
2022-12-22T06:07:23.166Z,3.28
2022-12-22T06:09:49.753Z,3.32
2022-12-22T06:12:16.432Z,3.39
2022-12-22T06:14:43.016Z,3.46
2022-12-22T06:17:09.686Z,3.55
2022-12-22T06:19:36.274Z,3.57
2022-12-22T06:22:02.897Z,3.63
2022-12-22T06:24:29.468Z,3.66
2022-12-22T06:26:56.052Z,3.75
2022-12-22T06:29:22.706Z,3.85
2022-12-22T06:31:49.793Z,3.96
2022-12-22T06:34:19.058Z,4.03
2022-12-22T06:36:46.593Z,4.09
2022-12-22T06:39:14.507Z,4.13
2022-12-22T06:42:00.268Z,4.16
2022-12-22T06:44:27.167Z,4.20
2022-12-22T06:46:54.210Z,4.23
2022-12-22T06:49:21.075Z,4.30
2022-12-22T06:51:48.997Z,4.33
2022-12-22T06:54:19.473Z,4.40
2022-12-22T06:56:49.282Z,4.48
2022-12-22T06:59:15.870Z,4.53
2022-12-22T07:01:42.959Z,4.58
2022-12-22T07:04:10.620Z,4.60
2022-12-22T07:06:37.657Z,4.62
2022-12-22T07:09:04.534Z,4.60
2022-12-22T07:11:31.187Z,4.57
2022-12-22T07:13:57.739Z,4.50
2022-12-22T07:16:24.360Z,4.50
2022-12-22T07:18:50.962Z,4.46
2022-12-22T07:21:17.586Z,4.45
2022-12-22T07:23:44.224Z,4.41
2022-12-22T07:26:11.406Z,4.38
2022-12-22T07:28:40.428Z,4.37
2022-12-22T07:31:07.912Z,4.36
2022-12-22T07:33:34.662Z,4.39
2022-12-22T07:36:04.231Z,4.39
2022-12-22T07:38:36.106Z,4.42
2022-12-22T07:41:05.574Z,4.41
2022-12-22T07:43:32.438Z,4.44
2022-12-22T07:45:59.031Z,4.42
2022-12-22T07:48:44.096Z,4.42
2022-12-22T07:51:10.696Z,4.44
2022-12-22T07:53:40.139Z,4.50
2022-12-22T07:56:07.268Z,4.53
2022-12-22T07:58:33.950Z,4.58
2022-12-22T08:01:01.687Z,4.60
2022-12-22T08:03:28.804Z,4.68
2022-12-22T08:05:55.451Z,4.77
2022-12-22T08:08:22.052Z,4.95
2022-12-22T08:10:48.687Z,5.05
2022-12-22T08:13:15.454Z,5.24
2022-12-22T08:15:42.228Z,5.78
2022-12-22T08:18:08.791Z,6.61
2022-12-22T08:20:35.472Z,6.54
2022-12-22T08:23:02.043Z,6.83
2022-12-22T08:25:30.309Z,6.38
2022-12-22T08:27:58.199Z,6.25
2022-12-22T08:30:24.921Z,6.01
2022-12-22T08:32:52.061Z,6.22
2022-12-22T08:35:18.919Z,6.16
2022-12-22T08:37:47.978Z,6.40
2022-12-22T08:40:19.763Z,6.16
2022-12-22T08:42:47.759Z,5.94
2022-12-22T08:45:14.403Z,5.88
2022-12-22T08:47:41.388Z,5.79
2022-12-22T08:50:08.563Z,5.75
2022-12-22T08:52:35.179Z,6.08
2022-12-22T08:55:01.830Z,6.33
2022-12-22T08:57:28.742Z,6.10
2022-12-22T08:59:55.402Z,6.68
2022-12-22T09:02:22.456Z,6.84
2022-12-22T09:04:49.170Z,7.40
2022-12-22T09:07:16.233Z,6.86
2022-12-22T09:09:42.996Z,6.39
2022-12-22T09:12:09.721Z,6.22
2022-12-22T09:14:36.376Z,5.99
2022-12-22T09:17:03.043Z,5.75
2022-12-22T09:19:29.630Z,5.62
2022-12-22T09:21:56.437Z,5.48
2022-12-22T09:24:23.006Z,5.33
2022-12-22T09:26:49.579Z,5.30
2022-12-22T09:29:17.080Z,5.29
2022-12-22T09:31:44.008Z,5.34
2022-12-22T09:34:17.126Z,5.32
2022-12-22T09:36:44.777Z,5.40
2022-12-22T09:39:11.393Z,5.49
2022-12-22T09:41:43.488Z,5.43
2022-12-22T09:44:27.192Z,5.37
2022-12-22T09:46:57.353Z,5.34
2022-12-22T09:49:24.301Z,5.35
2022-12-22T09:52:00.188Z,5.38
2022-12-22T09:54:27.951Z,5.48
2022-12-22T09:56:54.582Z,5.58
2022-12-22T09:59:21.744Z,5.71
2022-12-22T10:02:09.916Z,5.82
2022-12-22T10:04:45.181Z,5.97
2022-12-22T10:07:30.059Z,6.11
2022-12-22T10:09:56.844Z,6.22
2022-12-22T10:12:26.025Z,6.33
2022-12-22T10:14:54.259Z,6.40
2022-12-22T10:17:25.488Z,6.49
2022-12-22T10:19:54.862Z,6.53
2022-12-22T10:22:31.877Z,6.54
2022-12-22T10:25:02.347Z,6.60
2022-12-22T10:27:31.942Z,6.62
2022-12-22T10:30:26.092Z,6.66
2022-12-22T10:33:12.116Z,6.69
2022-12-22T10:35:52.959Z,6.70
2022-12-22T10:38:22.334Z,6.74
2022-12-22T10:40:56.568Z,6.72
2022-12-22T10:43:40.685Z,6.66
2022-12-22T10:46:07.686Z,6.70
2022-12-22T10:48:37.343Z,6.60
2022-12-22T10:51:10.341Z,6.51
2022-12-22T10:53:45.917Z,6.45
2022-12-22T10:56:25.140Z,6.38
2022-12-22T10:59:21.195Z,6.35
2022-12-22T11:01:49.316Z,6.31
2022-12-22T11:04:27.701Z,6.31
2022-12-22T11:06:58.605Z,6.29
2022-12-22T11:09:35.395Z,6.34
2022-12-22T11:12:14.400Z,6.37
2022-12-22T11:15:16.057Z,6.39
2022-12-22T11:17:48.048Z,6.39
2022-12-22T11:20:24.649Z,6.41
2022-12-22T11:23:13.766Z,6.41
2022-12-22T11:25:46.576Z,6.45
2022-12-22T11:28:33.742Z,6.48
2022-12-22T11:31:34.710Z,6.46
2022-12-22T11:34:30.462Z,6.49
2022-12-22T11:37:06.636Z,6.49
2022-12-22T11:39:35.859Z,6.53
2022-12-22T11:42:05.526Z,6.52
2022-12-22T11:44:38.611Z,6.45
2022-12-22T11:47:14.619Z,6.44
2022-12-22T11:51:01.542Z,6.46
2022-12-22T11:53:01.989Z,6.62
2022-12-22T11:55:31.412Z,6.82
2022-12-22T11:58:23.355Z,6.80
2022-12-22T12:01:16.340Z,6.89
2022-12-22T12:04:05.518Z,7.02
2022-12-22T12:06:50.930Z,7.03
2022-12-22T12:09:48.885Z,6.93
2022-12-22T12:13:06.217Z,6.81
2022-12-22T12:15:51.334Z,6.74
2022-12-22T12:18:27.864Z,6.88
2022-12-22T12:21:27.149Z,6.81
2022-12-22T12:24:03.966Z,6.96
2022-12-22T12:27:05.896Z,7.07
2022-12-22T12:29:41.027Z,7.07
2022-12-22T12:32:23.882Z,7.09
2022-12-22T12:35:00.439Z,7.12
2022-12-22T12:37:36.879Z,7.20
2022-12-22T12:40:27.818Z,7.24
2022-12-22T12:42:57.296Z,7.28
2022-12-22T12:45:36.816Z,7.30
2022-12-22T12:48:24.670Z,7.38
2022-12-22T12:50:55.365Z,7.42
2022-12-22T12:53:23.963Z,7.42
2022-12-22T12:55:50.512Z,7.46
2022-12-22T12:58:35.203Z,7.54
2022-12-22T13:01:03.853Z,7.57
2022-12-22T13:04:01.749Z,7.64
2022-12-22T13:06:35.583Z,7.67
2022-12-22T13:09:39.894Z,7.73
2022-12-22T13:12:11.661Z,7.76
2022-12-22T13:14:57.199Z,7.81
2022-12-22T14:58:38.717Z,7.64
2022-12-22T15:01:28.579Z,7.56
2022-12-22T15:04:04.469Z,7.56
2022-12-22T15:06:40.845Z,7.51
2022-12-22T15:09:13.109Z,7.49
2022-12-22T15:11:44.394Z,7.51
2022-12-22T15:14:17.541Z,7.48
2022-12-22T15:16:45.494Z,7.47
2022-12-22T15:19:17.289Z,7.46
2022-12-22T15:21:44.155Z,7.46
2022-12-22T15:24:18.311Z,7.46
2022-12-22T15:26:49.610Z,7.46
2022-12-22T15:29:16.139Z,7.47
2022-12-22T15:31:43.556Z,7.45
2022-12-22T15:34:25.233Z,7.44
2022-12-22T15:36:52.554Z,7.42
2022-12-22T15:39:20.672Z,7.41
2022-12-22T15:41:48.672Z,7.41
2022-12-22T15:44:15.645Z,7.40
2022-12-22T15:46:49.039Z,7.33
2022-12-22T15:49:20.415Z,7.32
2022-12-22T15:51:53.742Z,7.35
2022-12-22T15:54:21.115Z,7.32
2022-12-22T15:56:52.323Z,7.31
2022-12-22T15:59:27.520Z,7.30
2022-12-22T16:02:00.540Z,7.32
2022-12-22T16:04:28.633Z,7.33
2022-12-22T16:06:55.474Z,7.38
2022-12-22T16:09:25.364Z,7.39
2022-12-22T16:11:52.116Z,7.40
2022-12-22T16:14:21.084Z,7.39
2022-12-22T16:16:48.489Z,7.41
2022-12-22T16:19:17.417Z,7.43
2022-12-22T16:21:47.538Z,7.42
2022-12-22T16:24:31.606Z,7.40
2022-12-22T16:26:58.628Z,7.37
2022-12-22T16:29:26.338Z,7.38
2022-12-22T16:31:53.767Z,7.42
2022-12-22T16:34:20.561Z,7.39
2022-12-22T16:36:47.072Z,7.37
2022-12-22T16:39:14.720Z,7.35
2022-12-22T16:41:43.853Z,7.37
2022-12-22T16:44:20.025Z,7.37
2022-12-22T16:46:46.576Z,7.37
2022-12-22T16:49:20.114Z,7.34
2022-12-22T16:51:52.711Z,7.38
2022-12-22T16:54:19.287Z,7.36
2022-12-22T16:56:47.146Z,7.32
2022-12-22T16:59:14.089Z,7.33
2022-12-22T17:01:55.280Z,7.36
2022-12-22T17:04:28.449Z,7.35
2022-12-22T17:06:56.513Z,7.33
2022-12-22T17:09:31.516Z,7.33
2022-12-22T17:12:00.682Z,7.32
2022-12-22T17:14:31.975Z,7.35
2022-12-22T17:16:58.824Z,7.40
2022-12-22T17:19:25.410Z,7.38
2022-12-22T17:21:53.510Z,7.38
2022-12-22T17:24:27.764Z,7.36
2022-12-22T17:26:56.684Z,7.37
2022-12-22T17:29:25.606Z,7.38
2022-12-22T17:31:56.659Z,7.40
2022-12-22T17:34:23.575Z,7.40
2022-12-22T17:36:50.606Z,7.44
2022-12-22T17:39:21.326Z,7.46
2022-12-22T17:41:54.298Z,7.48
2022-12-22T17:44:25.080Z,7.47
2022-12-22T17:46:52.128Z,7.48
2022-12-22T17:49:20.223Z,7.49
2022-12-22T17:51:47.183Z,7.50
2022-12-22T17:54:31.857Z,7.51
2022-12-22T17:57:02.129Z,7.50
2022-12-22T17:59:30.561Z,7.48
2022-12-22T18:01:57.273Z,7.50
2022-12-22T18:04:24.020Z,7.53
2022-12-22T18:06:50.591Z,7.55
2022-12-22T18:09:23.238Z,7.55
2022-12-22T18:11:50.704Z,7.56
2022-12-22T18:14:18.624Z,7.56
2022-12-22T18:16:45.316Z,7.53
2022-12-22T18:19:12.059Z,7.52
2022-12-22T18:21:38.719Z,7.52
2022-12-22T18:24:05.774Z,7.54
2022-12-22T18:26:32.652Z,7.55
2022-12-22T18:28:59.896Z,7.60
2022-12-22T18:31:26.721Z,7.56
2022-12-22T18:33:53.630Z,7.49
2022-12-22T18:36:30.732Z,7.31
2022-12-22T18:38:59.352Z,7.18
2022-12-22T18:41:26.819Z,7.10
2022-12-22T18:43:53.595Z,7.07
2022-12-22T18:46:20.858Z,7.03
2022-12-22T18:48:48.621Z,7.10
2022-12-22T18:51:29.734Z,7.09
2022-12-22T18:53:57.243Z,7.08
2022-12-22T18:56:23.952Z,7.12
2022-12-22T18:58:50.764Z,7.13
2022-12-22T19:01:26.106Z,7.13
2022-12-22T19:03:57.403Z,7.09
2022-12-22T19:06:24.440Z,7.16
2022-12-22T19:08:52.993Z,7.15
2022-12-22T19:11:26.915Z,7.12
2022-12-22T19:13:53.481Z,7.08
2022-12-22T19:16:25.910Z,7.04
2022-12-22T19:18:52.748Z,7.01
2022-12-22T19:21:19.981Z,7.05
2022-12-22T19:23:46.857Z,7.03
2022-12-22T19:26:31.488Z,6.95
2022-12-22T19:29:01.444Z,6.99
2022-12-22T19:31:33.493Z,6.99
2022-12-22T19:34:04.298Z,6.93
2022-12-22T19:36:31.874Z,6.94
2022-12-22T19:39:04.687Z,6.96
2022-12-22T19:41:39.949Z,6.88
2022-12-22T19:44:17.039Z,6.84
2022-12-22T19:46:43.620Z,6.85
2022-12-22T19:49:36.387Z,6.78
2022-12-22T19:52:02.890Z,6.88
2022-12-22T19:54:29.678Z,6.81
2022-12-22T19:56:56.872Z,6.77
2022-12-22T19:59:39.146Z,6.79
2022-12-22T20:02:23.461Z,6.84
2022-12-22T20:04:51.190Z,6.80
2022-12-22T20:07:20.136Z,6.78
2022-12-22T20:09:47.385Z,6.77
2022-12-22T20:12:36.277Z,6.75
2022-12-22T20:15:13.475Z,6.75
2022-12-22T20:17:40.039Z,6.74
2022-12-22T20:20:07.309Z,6.70
2022-12-22T20:22:34.362Z,6.66
2022-12-22T20:25:01.319Z,6.68
2022-12-22T20:27:33.955Z,6.65
2022-12-22T20:30:01.045Z,6.63
2022-12-22T20:32:29.567Z,6.63
2022-12-22T20:34:56.371Z,6.64
2022-12-22T20:37:24.415Z,6.65
2022-12-22T20:39:50.966Z,6.63
2022-12-22T20:42:19.698Z,6.66
2022-12-22T20:45:03.987Z,6.68
2022-12-22T20:47:33.778Z,6.73
2022-12-22T20:50:00.691Z,6.75
2022-12-22T20:52:27.263Z,6.76
2022-12-22T20:54:53.785Z,6.79
2022-12-22T20:57:21.744Z,6.79
2022-12-22T20:59:53.973Z,6.79
2022-12-22T21:02:27.330Z,6.80
2022-12-22T21:04:54.123Z,6.81
2022-12-22T21:07:20.627Z,6.80
2022-12-22T21:09:47.156Z,6.83
2022-12-22T21:12:13.693Z,6.83
2022-12-22T21:14:40.248Z,6.84
2022-12-22T21:17:15.827Z,6.85
2022-12-22T21:19:42.495Z,6.88
2022-12-22T21:22:09.096Z,6.89
2022-12-22T21:24:35.873Z,6.93
2022-12-22T21:27:02.605Z,6.98
2022-12-22T21:29:29.845Z,7.02
2022-12-22T21:31:56.410Z,7.02
2022-12-22T21:34:22.967Z,7.02
2022-12-22T21:36:57.955Z,7.03
2022-12-22T21:39:39.475Z,7.02
2022-12-22T21:42:06.560Z,7.03
2022-12-22T21:44:35.091Z,7.04
2022-12-22T21:47:02.352Z,7.04
2022-12-22T21:49:31.960Z,7.04
2022-12-22T21:51:58.920Z,7.06
2022-12-22T21:54:26.388Z,7.07
2022-12-22T21:56:53.965Z,7.04
2022-12-22T21:59:21.714Z,7.03
2022-12-22T22:01:48.736Z,7.03
2022-12-22T22:04:15.569Z,7.01
2022-12-22T22:06:42.124Z,7.00
2022-12-22T22:09:08.664Z,6.97
2022-12-22T22:11:55.123Z,6.90
2022-12-22T22:14:22.032Z,6.83
2022-12-22T22:16:48.607Z,6.74
2022-12-22T22:19:15.172Z,6.66
2022-12-22T22:21:41.646Z,6.58
2022-12-22T22:24:08.194Z,6.53
2022-12-22T22:26:34.711Z,6.51
2022-12-22T22:29:01.234Z,6.50
2022-12-22T22:31:27.825Z,6.52
2022-12-22T22:33:54.592Z,6.54
2022-12-22T22:36:21.126Z,6.57
2022-12-22T22:38:51.046Z,6.58
2022-12-22T22:41:17.578Z,6.55
2022-12-22T22:43:44.082Z,6.53
2022-12-22T22:46:10.638Z,6.48
2022-12-22T22:48:37.375Z,6.40
2022-12-22T22:51:04.074Z,6.35
2022-12-22T22:53:30.929Z,6.26
2022-12-22T22:56:02.911Z,6.18
2022-12-22T22:58:29.773Z,6.14
2022-12-22T23:00:56.448Z,6.15
2022-12-22T23:03:23.272Z,6.16
2022-12-22T23:05:49.949Z,6.16
2022-12-22T23:08:16.497Z,6.14
2022-12-22T23:10:49.445Z,6.11
2022-12-22T23:13:16.030Z,6.09
2022-12-22T23:15:42.717Z,6.07
2022-12-22T23:18:09.314Z,6.06
2022-12-22T23:20:35.803Z,6.01
2022-12-22T23:23:03.528Z,5.99
2022-12-22T23:25:30.040Z,5.96
2022-12-22T23:27:56.597Z,5.97
2022-12-22T23:30:23.166Z,5.96
2022-12-22T23:32:49.903Z,5.93
2022-12-22T23:35:16.539Z,5.90
2022-12-22T23:37:43.025Z,5.84
2022-12-22T23:40:33.155Z,5.78
2022-12-22T23:42:57.296Z,5.70
2022-12-22T23:45:23.982Z,5.64
2022-12-22T23:47:50.514Z,5.58
2022-12-22T23:50:17.128Z,5.49
2022-12-22T23:52:49.039Z,5.48
2022-12-22T23:55:16.019Z,5.47
2022-12-22T23:57:42.607Z,5.36
